sensor_id;sensor_type;location;lat;lon;timestamp;pressure;altitude;pressure_sealevel;temperature;humidity
50250;BME280;36133;42.522;27.456;2022-12-18T00:01:23;101902.78;;;19.17;50.11
50250;BME280;36133;42.522;27.456;2022-12-18T00:03:51;101916.34;;;18.85;51.82
50250;BME280;36133;42.522;27.456;2022-12-18T00:06:17;101982.56;;;19.33;51.37
50250;BME280;36133;42.522;27.456;2022-12-18T00:08:44;101938.69;;;19.53;51.28
50250;BME280;36133;42.522;27.456;2022-12-18T00:11:15;101742.41;;;18.44;51.07
50250;BME280;36133;42.522;27.456;2022-12-18T00:13:44;101820.25;;;18.42;51.97
50250;BME280;36133;42.522;27.456;2022-12-18T00:16:12;101826.91;;;17.60;54.60
50250;BME280;36133;42.522;27.456;2022-12-18T00:18:38;102022.03;;;17.99;56.62
50250;BME280;36133;42.522;27.456;2022-12-18T00:21:06;101912.47;;;16.91;58.70
50250;BME280;36133;42.522;27.456;2022-12-18T00:23:36;102033.88;;;18.19;57.24
50250;BME280;36133;42.522;27.456;2022-12-18T00:26:05;101945.91;;;17.41;58.03
50250;BME280;36133;42.522;27.456;2022-12-18T00:28:31;102029.81;;;17.95;57.91
50250;BME280;36133;42.522;27.456;2022-12-18T00:31:03;101974.66;;;18.66;55.17
50250;BME280;36133;42.522;27.456;2022-12-18T00:33:30;102009.97;;;19.20;54.43
50250;BME280;36133;42.522;27.456;2022-12-18T00:36:22;101944.69;;;18.05;56.20
50250;BME280;36133;42.522;27.456;2022-12-18T00:38:47;102025.31;;;18.49;56.24
50250;BME280;36133;42.522;27.456;2022-12-18T00:41:14;101864.38;;;17.25;56.65
50250;BME280;36133;42.522;27.456;2022-12-18T00:44:00;101850.31;;;17.21;57.42
50250;BME280;36133;42.522;27.456;2022-12-18T00:46:25;102063.75;;;17.79;58.93
50250;BME280;36133;42.522;27.456;2022-12-18T00:48:51;101912.91;;;16.39;60.82
50250;BME280;36133;42.522;27.456;2022-12-18T00:51:17;101781.88;;;15.06;64.89
50250;BME280;36133;42.522;27.456;2022-12-18T00:53:45;101559.13;;;13.81;66.37
50250;BME280;36133;42.522;27.456;2022-12-18T00:56:20;101446.66;;;12.57;68.04
50250;BME280;36133;42.522;27.456;2022-12-18T01:04:18;101519.63;;;14.93;63.80
50250;BME280;36133;42.522;27.456;2022-12-18T01:06:43;101777.13;;;16.90;62.28
50250;BME280;36133;42.522;27.456;2022-12-18T01:09:09;101944.25;;;18.01;61.56
50250;BME280;36133;42.522;27.456;2022-12-18T01:11:35;101538.56;;;14.80;64.63
50250;BME280;36133;42.522;27.456;2022-12-18T01:14:00;102000.97;;;17.93;63.65
50250;BME280;36133;42.522;27.456;2022-12-18T01:16:26;101722.78;;;16.95;59.57
50250;BME280;36133;42.522;27.456;2022-12-18T01:18:53;101554.00;;;15.01;59.66
50250;BME280;36133;42.522;27.456;2022-12-18T01:21:23;101750.06;;;16.54;57.86
50250;BME280;36133;42.522;27.456;2022-12-18T01:23:56;101647.38;;;16.20;56.27
50250;BME280;36133;42.522;27.456;2022-12-18T01:26:22;101590.78;;;14.97;57.31
50250;BME280;36133;42.522;27.456;2022-12-18T01:28:48;101814.72;;;16.60;54.94
50250;BME280;36133;42.522;27.456;2022-12-18T01:31:22;101869.09;;;17.03;53.35
50250;BME280;36133;42.522;27.456;2022-12-18T01:33:48;101692.91;;;15.64;53.71
50250;BME280;36133;42.522;27.456;2022-12-18T01:36:21;102034.03;;;17.63;53.35
50250;BME280;36133;42.522;27.456;2022-12-18T01:38:50;101940.28;;;16.31;54.46
50250;BME280;36133;42.522;27.456;2022-12-18T01:41:20;101865.47;;;16.61;52.26
50250;BME280;36133;42.522;27.456;2022-12-18T01:55:08;101601.38;;;14.34;54.19
50250;BME280;36133;42.522;27.456;2022-12-18T03:00:04;101869.72;;;15.93;52.78
50250;BME280;36133;42.522;27.456;2022-12-18T03:27:02;101884.19;;;15.21;54.61
50250;BME280;36133;42.522;27.456;2022-12-18T04:05:21;101882.81;;;14.44;56.30
50250;BME280;36133;42.522;27.456;2022-12-18T04:07:49;102187.28;;;16.83;54.47
50250;BME280;36133;42.522;27.456;2022-12-18T04:10:18;101824.44;;;14.40;54.44
50250;BME280;36133;42.522;27.456;2022-12-18T04:12:43;101730.69;;;14.58;52.67
50250;BME280;36133;42.522;27.456;2022-12-18T04:15:12;102070.47;;;15.78;54.66
50250;BME280;36133;42.522;27.456;2022-12-18T04:17:38;102019.22;;;14.85;56.67
50250;BME280;36133;42.522;27.456;2022-12-18T04:20:31;101824.38;;;13.72;55.54
50250;BME280;36133;42.522;27.456;2022-12-18T04:23:03;101708.44;;;12.89;56.03
50250;BME280;36133;42.522;27.456;2022-12-18T04:28:29;102030.16;;;14.77;56.48
50250;BME280;36133;42.522;27.456;2022-12-18T04:31:07;102118.38;;;15.87;55.40
50250;BME280;36133;42.522;27.456;2022-12-18T04:33:38;101757.78;;;12.77;56.67
50250;BME280;36133;42.522;27.456;2022-12-18T04:36:09;101703.00;;;13.21;55.01
50250;BME280;36133;42.522;27.456;2022-12-18T04:39:02;101943.34;;;14.90;54.64
50250;BME280;36133;42.522;27.456;2022-12-18T04:41:27;101690.31;;;13.59;53.82
50250;BME280;36133;42.522;27.456;2022-12-18T04:43:53;102072.59;;;15.53;54.66
50250;BME280;36133;42.522;27.456;2022-12-18T04:46:23;101923.97;;;14.78;55.25
50250;BME280;36133;42.522;27.456;2022-12-18T04:48:49;102212.59;;;17.34;53.33
50250;BME280;36133;42.522;27.456;2022-12-18T04:51:14;101948.47;;;15.73;52.69
50250;BME280;36133;42.522;27.456;2022-12-18T04:53:40;102124.78;;;16.30;53.94
50250;BME280;36133;42.522;27.456;2022-12-18T04:56:09;102271.34;;;17.51;52.67
50250;BME280;36133;42.522;27.456;2022-12-18T04:58:36;101861.84;;;15.11;52.38
50250;BME280;36133;42.522;27.456;2022-12-18T05:01:05;101892.59;;;15.41;52.15
50250;BME280;36133;42.522;27.456;2022-12-18T05:03:31;102051.78;;;16.47;51.70
50250;BME280;36133;42.522;27.456;2022-12-18T05:05:57;102029.66;;;15.11;54.18
50250;BME280;36133;42.522;27.456;2022-12-18T05:08:23;102143.81;;;15.27;53.51
50250;BME280;36133;42.522;27.456;2022-12-18T05:10:48;102107.81;;;15.54;53.40
50250;BME280;36133;42.522;27.456;2022-12-18T05:13:14;102112.88;;;15.58;52.79
50250;BME280;36133;42.522;27.456;2022-12-18T05:15:39;102070.56;;;15.03;52.96
50250;BME280;36133;42.522;27.456;2022-12-18T05:18:07;102152.44;;;15.68;53.36
50250;BME280;36133;42.522;27.456;2022-12-18T05:20:33;102318.47;;;17.39;51.03
50250;BME280;36133;42.522;27.456;2022-12-18T05:22:59;101852.00;;;13.14;54.70
50250;BME280;36133;42.522;27.456;2022-12-18T05:25:24;102012.88;;;14.92;52.76
50250;BME280;36133;42.522;27.456;2022-12-18T05:27:50;102165.06;;;15.01;54.18
50250;BME280;36133;42.522;27.456;2022-12-18T05:30:16;102188.91;;;15.59;53.29
50250;BME280;36133;42.522;27.456;2022-12-18T05:32:42;102126.91;;;16.35;50.90
50250;BME280;36133;42.522;27.456;2022-12-18T05:35:09;102283.31;;;16.34;52.70
50250;BME280;36133;42.522;27.456;2022-12-18T05:37:36;102357.75;;;16.72;52.04
50250;BME280;36133;42.522;27.456;2022-12-18T05:40:03;102037.75;;;15.48;51.12
50250;BME280;36133;42.522;27.456;2022-12-18T05:42:29;102345.72;;;15.76;55.25
50250;BME280;36133;42.522;27.456;2022-12-18T05:44:55;102355.66;;;15.84;56.18
50250;BME280;36133;42.522;27.456;2022-12-18T05:47:21;102000.78;;;13.17;58.14
50250;BME280;36133;42.522;27.456;2022-12-18T05:49:47;102156.66;;;13.86;58.81
50250;BME280;36133;42.522;27.456;2022-12-18T05:52:13;102204.59;;;15.34;55.70
50250;BME280;36133;42.522;27.456;2022-12-18T05:54:38;101986.16;;;14.04;56.24
50250;BME280;36133;42.522;27.456;2022-12-18T05:57:04;102061.81;;;14.92;55.52
50250;BME280;36133;42.522;27.456;2022-12-18T05:59:30;101881.81;;;12.58;58.87
50250;BME280;36133;42.522;27.456;2022-12-18T06:01:56;102246.13;;;16.11;55.80
50250;BME280;36133;42.522;27.456;2022-12-18T06:04:22;102228.84;;;15.44;55.11
50250;BME280;36133;42.522;27.456;2022-12-18T06:06:48;102401.50;;;16.03;53.68
50250;BME280;36133;42.522;27.456;2022-12-18T06:09:13;102109.28;;;14.67;51.40
50250;BME280;36133;42.522;27.456;2022-12-18T06:11:39;102018.44;;;13.13;53.00
50250;BME280;36133;42.522;27.456;2022-12-18T06:14:06;102252.56;;;14.42;53.51
50250;BME280;36133;42.522;27.456;2022-12-18T06:16:32;102326.47;;;14.93;53.53
50250;BME280;36133;42.522;27.456;2022-12-18T06:18:59;102097.06;;;12.88;53.95
50250;BME280;36133;42.522;27.456;2022-12-18T06:21:26;102140.63;;;13.60;53.51
50250;BME280;36133;42.522;27.456;2022-12-18T06:23:51;101940.75;;;11.99;54.71
50250;BME280;36133;42.522;27.456;2022-12-18T06:26:18;101890.97;;;11.84;53.39
50250;BME280;36133;42.522;27.456;2022-12-18T06:32:06;102224.75;;;14.32;52.08
50250;BME280;36133;42.522;27.456;2022-12-18T06:34:32;102007.97;;;12.28;53.49
50250;BME280;36133;42.522;27.456;2022-12-18T06:36:58;101969.47;;;11.92;53.68
50250;BME280;36133;42.522;27.456;2022-12-18T06:39:24;102453.66;;;14.75;54.52
50250;BME280;36133;42.522;27.456;2022-12-18T06:41:49;101991.38;;;11.65;54.41
50250;BME280;36133;42.522;27.456;2022-12-18T06:44:17;102496.28;;;14.25;55.09
50250;BME280;36133;42.522;27.456;2022-12-18T06:46:45;102265.25;;;13.29;55.42
50250;BME280;36133;42.522;27.456;2022-12-18T06:52:33;101968.41;;;11.35;54.26
50250;BME280;36133;42.522;27.456;2022-12-18T06:55:00;102199.28;;;12.46;54.79
50250;BME280;36133;42.522;27.456;2022-12-18T06:57:26;101923.78;;;10.45;54.91
50250;BME280;36133;42.522;27.456;2022-12-18T06:59:52;101962.88;;;10.59;55.09
50250;BME280;36133;42.522;27.456;2022-12-18T07:02:18;102546.03;;;14.26;54.84
50250;BME280;36133;42.522;27.456;2022-12-18T07:08:45;102542.56;;;13.91;54.53
50250;BME280;36133;42.522;27.456;2022-12-18T07:14:42;102022.84;;;10.62;53.74
50250;BME280;36133;42.522;27.456;2022-12-18T07:20:50;102208.06;;;11.36;53.94
50250;BME280;36133;42.522;27.456;2022-12-18T07:26:55;102401.06;;;11.98;53.88
50250;BME280;36133;42.522;27.456;2022-12-18T07:32:57;102207.78;;;10.85;54.71
50250;BME280;36133;42.522;27.456;2022-12-18T07:39:05;102611.78;;;12.83;55.38
50250;BME280;36133;42.522;27.456;2022-12-18T07:48:30;101932.66;;;8.74;53.69
50250;BME280;36133;42.522;27.456;2022-12-18T09:07:33;102680.88;;;14.69;47.20
50250;BME280;36133;42.522;27.456;2022-12-18T09:09:59;102254.34;;;12.54;46.43
50250;BME280;36133;42.522;27.456;2022-12-18T09:12:25;102209.03;;;11.70;46.80
50250;BME280;36133;42.522;27.456;2022-12-18T09:14:51;102693.78;;;15.73;44.67
50250;BME280;36133;42.522;27.456;2022-12-18T09:17:16;102210.56;;;11.99;47.21
50250;BME280;36133;42.522;27.456;2022-12-18T09:19:42;102499.50;;;13.46;47.21
50250;BME280;36133;42.522;27.456;2022-12-18T09:22:08;102526.53;;;13.64;47.03
50250;BME280;36133;42.522;27.456;2022-12-18T09:24:36;102204.00;;;12.01;46.54
50250;BME280;36133;42.522;27.456;2022-12-18T09:27:05;102199.56;;;11.92;46.43
50250;BME280;36133;42.522;27.456;2022-12-18T09:29:30;102159.13;;;11.73;46.08
50250;BME280;36133;42.522;27.456;2022-12-18T09:31:59;102497.31;;;14.81;44.54
50250;BME280;36133;42.522;27.456;2022-12-18T09:34:25;102674.22;;;15.69;45.08
50250;BME280;36133;42.522;27.456;2022-12-18T09:36:53;102481.88;;;14.33;44.59
50250;BME280;36133;42.522;27.456;2022-12-18T09:39:19;102407.78;;;13.74;45.21
50250;BME280;36133;42.522;27.456;2022-12-18T09:41:53;102292.94;;;13.57;44.50
50250;BME280;36133;42.522;27.456;2022-12-18T09:44:24;102578.06;;;14.73;45.33
50250;BME280;36133;42.522;27.456;2022-12-18T09:47:18;102489.44;;;13.89;45.87
50250;BME280;36133;42.522;27.456;2022-12-18T09:50:15;102347.91;;;13.59;45.42
50250;BME280;36133;42.522;27.456;2022-12-18T09:52:54;102272.06;;;12.75;44.95
50250;BME280;36133;42.522;27.456;2022-12-18T10:18:33;102708.44;;;13.98;46.66
50250;BME280;36133;42.522;27.456;2022-12-18T10:27:43;102404.91;;;12.83;46.25
50250;BME280;36133;42.522;27.456;2022-12-18T10:30:15;102164.00;;;11.00;46.77
50250;BME280;36133;42.522;27.456;2022-12-18T10:32:45;102635.22;;;13.54;47.11
50250;BME280;36133;42.522;27.456;2022-12-18T10:35:24;102263.81;;;11.29;47.93
50250;BME280;36133;42.522;27.456;2022-12-18T23:46:22;103059.28;;;7.18;55.44
50250;BME280;36133;42.522;27.456;2022-12-18T23:52:12;102872.63;;;5.98;54.83
50250;BME280;36133;42.522;27.456;2022-12-18T23:58:01;103413.84;;;9.26;53.71
